createdAt,value
2018-07-09T00:01:36.465Z,4.67
2018-07-09T00:04:03.802Z,4.60
2018-07-09T00:06:31.077Z,5.20
2018-07-09T00:08:58.357Z,5.17
2018-07-09T00:11:25.682Z,4.40
2018-07-09T00:13:53.002Z,5.13
2018-07-09T00:16:20.264Z,5.10
2018-07-09T00:18:47.561Z,5.27
2018-07-09T00:21:14.905Z,5.07
2018-07-09T00:23:42.192Z,4.70
2018-07-09T00:26:09.489Z,5.03
2018-07-09T00:28:36.769Z,5.93
2018-07-09T00:31:04.066Z,5.10
2018-07-09T00:33:31.604Z,4.97
2018-07-09T00:35:58.901Z,4.63
2018-07-09T00:38:26.183Z,5.30
2018-07-09T00:40:53.501Z,5.10
2018-07-09T00:43:20.865Z,5.90
2018-07-09T00:45:48.205Z,5.20
2018-07-09T00:48:15.517Z,5.17
2018-07-09T00:50:42.805Z,6.17
2018-07-09T00:53:10.102Z,6.93
2018-07-09T00:55:37.396Z,5.40
2018-07-09T00:58:04.796Z,5.27
2018-07-09T01:00:32.125Z,5.17
2018-07-09T01:02:59.406Z,4.83
2018-07-09T01:05:26.762Z,5.30
2018-07-09T01:07:54.067Z,4.40
2018-07-09T01:10:21.341Z,4.73
2018-07-09T01:12:48.645Z,4.67
2018-07-09T01:15:15.961Z,4.83
2018-07-09T01:17:43.261Z,4.87
2018-07-09T01:20:10.594Z,4.97
2018-07-09T01:22:37.884Z,4.80
2018-07-09T01:25:05.193Z,4.07
2018-07-09T01:27:32.474Z,5.33
2018-07-09T01:30:08.597Z,5.23
2018-07-09T01:32:36.633Z,4.20
2018-07-09T01:35:04.101Z,4.80
2018-07-09T01:37:31.397Z,4.57
2018-07-09T01:39:58.668Z,4.80
2018-07-09T01:42:25.961Z,4.80
2018-07-09T01:44:53.228Z,4.63
2018-07-09T01:47:20.506Z,4.47
2018-07-09T01:49:47.845Z,5.83
2018-07-09T01:52:15.104Z,4.33
2018-07-09T01:54:42.403Z,5.43
2018-07-09T01:57:09.669Z,5.43
2018-07-09T01:59:37.025Z,5.77
2018-07-09T02:02:04.452Z,5.00
2018-07-09T02:04:31.736Z,4.67
2018-07-09T02:06:58.992Z,4.90
2018-07-09T02:09:26.308Z,5.17
2018-07-09T02:11:53.578Z,5.33
2018-07-09T02:14:20.861Z,4.90
2018-07-09T02:16:48.137Z,4.57
2018-07-09T02:19:15.457Z,5.63
2018-07-09T02:21:42.742Z,4.43
2018-07-09T02:24:10.022Z,4.70
2018-07-09T02:26:37.296Z,5.10
2018-07-09T02:29:04.716Z,5.53
2018-07-09T02:31:31.987Z,4.40
2018-07-09T02:33:59.339Z,5.23
2018-07-09T02:36:26.892Z,6.20
2018-07-09T02:38:54.228Z,5.00
2018-07-09T02:41:21.541Z,5.40
2018-07-09T02:43:48.833Z,5.13
2018-07-09T02:46:16.117Z,4.10
2018-07-09T02:48:43.385Z,5.00
2018-07-09T02:51:10.689Z,5.03
2018-07-09T02:53:38.014Z,5.10
2018-07-09T02:56:05.290Z,5.57
2018-07-09T02:58:32.585Z,4.70
2018-07-09T03:00:59.934Z,3.90
2018-07-09T03:03:27.152Z,4.20
2018-07-09T03:05:54.508Z,4.30
2018-07-09T03:08:21.804Z,4.00
2018-07-09T03:10:49.085Z,4.37
2018-07-09T03:13:16.362Z,4.30
2018-07-09T03:15:43.657Z,4.80
2018-07-09T03:18:10.966Z,4.80
2018-07-09T03:20:38.254Z,5.30
2018-07-09T03:23:05.544Z,4.50
2018-07-09T03:25:32.844Z,5.43
2018-07-09T03:28:00.113Z,4.70
2018-07-09T03:30:27.393Z,4.57
2018-07-09T03:32:54.711Z,4.53
2018-07-09T03:35:21.989Z,5.50
2018-07-09T03:37:49.737Z,4.77
2018-07-09T03:40:17.018Z,5.17
2018-07-09T03:42:44.297Z,5.10
2018-07-09T03:45:11.593Z,4.40
2018-07-09T03:47:38.910Z,5.23
2018-07-09T03:50:06.197Z,5.27
2018-07-09T03:52:33.458Z,5.60
2018-07-09T03:55:00.724Z,4.90
2018-07-09T03:57:28.009Z,4.03
2018-07-09T03:59:55.361Z,5.33
2018-07-09T04:02:22.677Z,6.00
2018-07-09T04:04:49.930Z,5.40
2018-07-09T04:07:17.217Z,5.17
2018-07-09T04:09:44.501Z,6.50
2018-07-09T04:12:11.805Z,5.60
2018-07-09T04:14:39.131Z,7.03
2018-07-09T04:17:06.392Z,6.70
2018-07-09T04:19:33.697Z,8.33
2018-07-09T04:22:01.015Z,7.13
2018-07-09T04:24:28.281Z,6.70
2018-07-09T04:26:55.633Z,7.10
2018-07-09T04:29:22.909Z,6.63
2018-07-09T04:31:50.345Z,7.90
2018-07-09T04:34:17.597Z,7.97
2018-07-09T04:36:44.916Z,7.30
2018-07-09T04:39:12.397Z,7.90
2018-07-09T04:41:39.685Z,7.20
2018-07-09T04:44:06.973Z,8.50
2018-07-09T04:46:34.257Z,7.30
2018-07-09T04:49:01.550Z,8.27
2018-07-09T04:51:29.064Z,8.67
2018-07-09T04:53:56.624Z,8.40
2018-07-09T04:56:24.312Z,8.10
2018-07-09T04:58:52.233Z,8.77
2018-07-09T05:01:19.509Z,9.07
2018-07-09T05:03:46.785Z,9.50
2018-07-09T05:06:14.061Z,8.93
2018-07-09T05:08:41.342Z,8.23
2018-07-09T05:11:08.652Z,8.83
2018-07-09T05:13:35.928Z,9.60
2018-07-09T05:16:03.197Z,9.40
2018-07-09T05:18:30.525Z,10.07
2018-07-09T05:20:57.857Z,8.30
2018-07-09T05:23:25.177Z,8.70
2018-07-09T05:25:52.464Z,8.00
2018-07-09T05:28:19.729Z,8.33
2018-07-09T05:30:47.033Z,8.90
2018-07-09T05:33:14.357Z,9.57
2018-07-09T05:35:41.652Z,10.90
2018-07-09T05:38:08.984Z,9.23
2018-07-09T05:40:36.481Z,8.57
2018-07-09T05:43:03.825Z,9.37
2018-07-09T05:45:31.149Z,8.93
2018-07-09T05:47:58.441Z,10.30
2018-07-09T05:50:25.717Z,9.80
2018-07-09T05:52:52.997Z,10.53
2018-07-09T05:55:20.288Z,11.97
2018-07-09T05:57:47.570Z,8.70
2018-07-09T06:00:14.849Z,9.23
2018-07-09T06:02:42.313Z,9.93
2018-07-09T06:05:09.585Z,9.93
2018-07-09T06:07:36.933Z,9.63
2018-07-09T06:10:04.249Z,9.37
2018-07-09T06:12:31.533Z,10.90
2018-07-09T06:14:58.951Z,10.00
2018-07-09T06:17:26.232Z,10.43
2018-07-09T06:19:53.517Z,8.80
2018-07-09T06:22:20.830Z,10.43
2018-07-09T06:24:48.108Z,10.80
2018-07-09T06:27:15.389Z,9.80
2018-07-09T06:29:42.693Z,8.70
2018-07-09T06:32:09.982Z,8.70
2018-07-09T06:34:37.289Z,7.13
2018-07-09T06:37:04.601Z,8.27
2018-07-09T06:39:31.876Z,6.83
2018-07-09T06:41:59.432Z,6.70
2018-07-09T06:44:26.806Z,6.17
2018-07-09T06:46:54.353Z,6.03
2018-07-09T06:49:21.788Z,6.63
2018-07-09T06:51:49.113Z,7.03
2018-07-09T06:54:16.448Z,7.20
2018-07-09T06:56:43.729Z,7.10
2018-07-09T06:59:11.086Z,6.50
2018-07-09T07:01:38.393Z,6.83
2018-07-09T07:04:05.669Z,6.80
2018-07-09T07:06:32.961Z,7.00
2018-07-09T07:09:00.387Z,7.10
2018-07-09T07:11:27.563Z,7.33
2018-07-09T07:13:54.854Z,6.07
2018-07-09T07:16:22.161Z,5.97
2018-07-09T07:18:49.469Z,5.90
2018-07-09T07:21:16.831Z,8.23
2018-07-09T07:23:44.141Z,6.40
2018-07-09T07:26:11.441Z,5.00
2018-07-09T07:28:38.824Z,4.90
2018-07-09T07:31:06.120Z,5.67
2018-07-09T07:33:33.414Z,5.10
2018-07-09T07:36:00.769Z,3.90
2018-07-09T07:38:28.115Z,4.20
2018-07-09T07:40:55.442Z,4.80
2018-07-09T07:43:23.088Z,4.40
2018-07-09T07:45:50.429Z,4.33
2018-07-09T07:48:17.729Z,4.03
2018-07-09T07:50:45.066Z,4.30
2018-07-09T07:53:12.389Z,4.00
2018-07-09T07:55:39.685Z,2.97
2018-07-09T07:58:07.011Z,4.20
2018-07-09T08:00:34.274Z,3.23
2018-07-09T08:03:01.661Z,3.30
2018-07-09T08:05:28.948Z,3.70
2018-07-09T08:07:56.241Z,4.53
2018-07-09T08:10:23.532Z,3.70
2018-07-09T08:15:18.245Z,4.53
2018-07-09T08:17:45.533Z,4.47
2018-07-09T08:20:12.829Z,3.80
2018-07-09T08:22:40.111Z,3.60
2018-07-09T08:25:07.468Z,3.27
2018-07-09T08:27:34.754Z,3.77
2018-07-09T08:30:02.042Z,3.20
2018-07-09T08:32:29.730Z,3.83
2018-07-09T08:34:56.714Z,3.90
2018-07-09T08:37:24.056Z,3.87
2018-07-09T08:39:51.380Z,3.23
2018-07-09T08:42:18.705Z,2.93
2018-07-09T08:44:46.225Z,2.40
2018-07-09T08:47:13.826Z,2.50
2018-07-09T08:49:41.137Z,3.10
2018-07-09T08:52:08.425Z,2.43
2018-07-09T08:54:35.730Z,2.57
2018-07-09T08:57:03.257Z,2.83
2018-07-09T08:59:30.574Z,2.50
2018-07-09T09:01:57.957Z,2.73
2018-07-09T09:04:25.265Z,2.80
2018-07-09T09:06:52.535Z,3.30
2018-07-09T09:09:19.816Z,3.53
2018-07-09T09:11:47.110Z,4.50
2018-07-09T09:14:14.423Z,3.73
2018-07-09T09:16:41.741Z,3.63
2018-07-09T09:19:09.017Z,3.63
2018-07-09T09:21:36.329Z,3.10
2018-07-09T09:24:03.640Z,2.47
2018-07-09T09:26:30.966Z,2.20
2018-07-09T09:28:58.419Z,2.00
2018-07-09T09:31:25.719Z,1.83
2018-07-09T09:33:52.994Z,2.40
2018-07-09T09:36:20.261Z,1.80
2018-07-09T09:38:47.550Z,2.40
2018-07-09T09:41:14.849Z,3.00
2018-07-09T09:43:42.129Z,2.33
2018-07-09T09:46:09.609Z,2.37
2018-07-09T09:48:36.904Z,2.10
2018-07-09T09:51:04.193Z,3.53
2018-07-09T09:53:31.498Z,3.00
2018-07-09T09:55:59.017Z,2.90
2018-07-09T09:58:26.317Z,2.93
2018-07-09T10:00:53.666Z,3.13
2018-07-09T10:03:21.045Z,2.37
2018-07-09T10:05:48.733Z,3.17
2018-07-09T10:08:16.013Z,2.57
2018-07-09T10:10:43.541Z,2.97
2018-07-09T10:13:11.013Z,2.53
2018-07-09T10:15:38.310Z,2.30
2018-07-09T10:18:05.594Z,2.30
2018-07-09T10:20:32.893Z,2.73
2018-07-09T10:23:00.309Z,2.80
2018-07-09T10:25:27.484Z,2.57
2018-07-09T10:27:54.804Z,3.03
2018-07-09T10:30:22.122Z,2.30
2018-07-09T10:32:49.405Z,3.23
2018-07-09T10:35:16.693Z,2.60
2018-07-09T10:37:43.968Z,2.70
2018-07-09T10:40:11.285Z,2.63
2018-07-09T10:42:38.608Z,2.67
2018-07-09T10:45:05.891Z,2.30
2018-07-09T10:47:33.349Z,3.07
2018-07-09T10:50:00.628Z,2.67
2018-07-09T10:52:27.945Z,2.30
2018-07-09T10:54:55.293Z,3.27
2018-07-09T10:57:22.636Z,2.20
2018-07-09T10:59:50.061Z,2.07
2018-07-09T11:02:17.334Z,2.80
2018-07-09T11:04:44.658Z,3.03
2018-07-09T11:07:11.960Z,1.93
2018-07-09T11:09:39.251Z,2.10
2018-07-09T11:12:06.548Z,1.93
2018-07-09T11:14:33.821Z,2.57
2018-07-09T11:17:01.250Z,2.23
2018-07-09T11:19:28.549Z,2.07
2018-07-09T11:21:55.860Z,2.00
2018-07-09T11:24:23.167Z,1.80
2018-07-09T11:26:50.508Z,1.80
2018-07-09T11:29:17.876Z,2.20
2018-07-09T11:31:45.094Z,1.67
2018-07-09T11:34:13.043Z,3.20
2018-07-09T11:36:40.321Z,1.90
2018-07-09T11:39:07.645Z,1.60
2018-07-09T11:41:34.913Z,1.40
2018-07-09T11:44:02.229Z,1.87
2018-07-09T11:46:29.685Z,1.70
2018-07-09T11:48:57.233Z,1.70
2018-07-09T11:51:24.550Z,1.60
2018-07-09T11:53:51.869Z,1.67
2018-07-09T11:56:19.171Z,2.67
2018-07-09T11:58:46.527Z,2.13
2018-07-09T12:01:13.779Z,1.37
2018-07-09T12:03:41.085Z,1.93
2018-07-09T12:06:08.393Z,1.60
2018-07-09T12:08:35.666Z,1.97
2018-07-09T12:11:03.001Z,2.43
2018-07-09T12:13:30.293Z,2.30
2018-07-09T12:15:57.569Z,2.30
2018-07-09T12:18:24.924Z,2.43
2018-07-09T12:20:52.221Z,1.93
2018-07-09T12:23:20.328Z,1.83
2018-07-09T12:25:47.638Z,1.90
2018-07-09T12:28:15.124Z,1.93
2018-07-09T12:30:42.397Z,1.90
2018-07-09T12:33:09.712Z,2.00
2018-07-09T12:35:37.033Z,2.90
2018-07-09T12:38:04.529Z,4.07
2018-07-09T12:40:31.821Z,2.30
2018-07-09T12:42:59.109Z,2.30
2018-07-09T12:45:26.402Z,2.13
2018-07-09T12:47:54.014Z,1.90
2018-07-09T12:50:21.540Z,1.80
2018-07-09T12:52:48.818Z,1.90
2018-07-09T12:55:16.108Z,2.13
2018-07-09T12:57:43.392Z,2.03
2018-07-09T13:00:10.751Z,1.90
2018-07-09T13:02:38.184Z,1.90
2018-07-09T13:05:05.489Z,1.63
2018-07-09T13:07:33.617Z,2.53
2018-07-09T13:10:00.888Z,2.83
2018-07-09T13:12:28.527Z,2.03
2018-07-09T13:14:56.906Z,1.97
2018-07-09T13:17:24.197Z,1.93
2018-07-09T13:19:51.511Z,1.67
2018-07-09T13:22:19.113Z,2.07
2018-07-09T13:24:46.400Z,2.77
2018-07-09T13:27:13.713Z,2.70
2018-07-09T13:29:41.014Z,2.40
2018-07-09T13:32:08.295Z,2.40
2018-07-09T13:34:35.635Z,1.80
2018-07-09T13:37:03.447Z,1.50
2018-07-09T13:39:30.740Z,2.83
2018-07-09T13:41:58.057Z,2.27
2018-07-09T13:44:25.377Z,1.70
2018-07-09T13:46:52.645Z,1.57
2018-07-09T13:49:19.963Z,2.40
2018-07-09T13:51:47.509Z,1.97
2018-07-09T13:54:14.800Z,2.40
2018-07-09T13:56:42.095Z,2.07
2018-07-09T13:59:09.361Z,2.00
2018-07-09T14:01:36.658Z,2.37
2018-07-09T14:04:03.954Z,1.73
2018-07-09T14:06:31.224Z,2.00
2018-07-09T14:08:58.514Z,2.10
2018-07-09T14:11:25.821Z,2.00
2018-07-09T14:13:53.093Z,1.60
2018-07-09T14:16:20.396Z,1.37
2018-07-09T14:18:47.722Z,1.87
2018-07-09T14:21:14.964Z,2.30
2018-07-09T14:23:42.268Z,3.20
2018-07-09T14:26:09.558Z,2.47
2018-07-09T14:28:36.840Z,2.13
2018-07-09T14:31:04.149Z,2.50
2018-07-09T14:33:31.434Z,2.27
2018-07-09T14:35:58.773Z,1.70
2018-07-09T14:38:26.070Z,1.80
2018-07-09T14:40:53.345Z,1.98
2018-07-09T14:43:20.620Z,2.10
2018-07-09T14:45:48.108Z,1.93
2018-07-09T14:48:15.397Z,2.30
2018-07-09T14:50:42.700Z,2.03
2018-07-09T14:53:10.269Z,1.57
2018-07-09T14:55:37.605Z,3.30
2018-07-09T14:58:04.900Z,4.40
2018-07-09T15:00:32.205Z,2.50
2018-07-09T15:02:59.489Z,1.83
2018-07-09T15:05:26.788Z,1.87
2018-07-09T15:07:54.100Z,1.70
2018-07-09T15:10:21.417Z,2.43
2018-07-09T15:12:48.709Z,1.80
2018-07-09T15:15:16.046Z,2.33
2018-07-09T15:17:43.369Z,1.80
2018-07-09T15:20:10.660Z,1.93
2018-07-09T15:22:38.024Z,3.40
2018-07-09T15:25:05.440Z,2.27
2018-07-09T15:27:32.748Z,2.10
2018-07-09T15:30:00.053Z,1.67
2018-07-09T15:32:28.567Z,1.90
2018-07-09T15:34:56.013Z,2.23
2018-07-09T15:37:23.414Z,2.33
2018-07-09T15:39:50.860Z,2.27
2018-07-09T15:42:18.153Z,1.80
2018-07-09T15:44:45.429Z,1.60
2018-07-09T15:47:12.724Z,2.20
2018-07-09T15:49:40.705Z,2.27
2018-07-09T15:52:08.009Z,1.90
2018-07-09T15:54:35.465Z,1.80
2018-07-09T15:57:02.807Z,1.60
2018-07-09T15:59:30.126Z,2.07
2018-07-09T16:01:57.481Z,1.53
2018-07-09T16:04:24.807Z,2.20
2018-07-09T16:06:52.126Z,1.83
2018-07-09T16:09:19.622Z,2.20
2018-07-09T16:11:46.973Z,2.33
2018-07-09T16:14:14.277Z,2.93
2018-07-09T16:16:41.569Z,4.73
2018-07-09T16:19:08.876Z,2.23
2018-07-09T16:21:36.186Z,2.70
2018-07-09T16:24:03.751Z,2.63
2018-07-09T16:26:31.053Z,2.27
2018-07-09T16:28:58.389Z,3.23
2018-07-09T16:31:25.676Z,3.17
2018-07-09T16:33:53.004Z,2.77
2018-07-09T16:36:20.449Z,2.33
2018-07-09T16:38:47.726Z,2.87
2018-07-09T16:41:15.031Z,2.20
2018-07-09T16:43:42.347Z,2.50
2018-07-09T16:46:09.620Z,2.80
2018-07-09T16:48:36.953Z,2.03
2018-07-09T16:51:04.253Z,3.07
2018-07-09T16:53:31.532Z,2.90
2018-07-09T16:55:59.075Z,2.20
2018-07-09T16:58:26.359Z,2.50
2018-07-09T17:00:53.793Z,2.70
2018-07-09T17:03:21.206Z,2.07
2018-07-09T17:05:48.410Z,2.10
2018-07-09T17:08:15.709Z,2.87
2018-07-09T17:10:42.993Z,3.17
2018-07-09T17:13:10.301Z,2.10
2018-07-09T17:15:37.601Z,2.60
2018-07-09T17:18:05.178Z,2.60
2018-07-09T17:20:32.460Z,3.63
2018-07-09T17:22:59.757Z,2.13
2018-07-09T17:25:27.093Z,2.57
2018-07-09T17:27:54.493Z,2.10
2018-07-09T17:30:21.816Z,2.27
2018-07-09T17:32:49.236Z,2.10
2018-07-09T17:35:16.529Z,2.30
2018-07-09T17:37:43.869Z,2.23
2018-07-09T17:40:11.163Z,2.53
2018-07-09T17:42:38.453Z,2.80
2018-07-09T17:45:06.029Z,2.50
2018-07-09T17:47:33.313Z,2.83
2018-07-09T17:50:00.612Z,3.33
2018-07-09T17:52:27.897Z,2.80
2018-07-09T17:54:55.204Z,2.30
2018-07-09T17:57:22.671Z,2.43
2018-07-09T17:59:49.953Z,2.77
2018-07-09T18:02:17.273Z,3.50
2018-07-09T18:04:44.697Z,2.20
2018-07-09T18:07:12.017Z,3.67
2018-07-09T18:09:39.297Z,2.90
2018-07-09T18:12:06.585Z,2.50
2018-07-09T18:14:33.880Z,3.80
2018-07-09T18:17:01.165Z,7.63
2018-07-09T18:19:28.441Z,3.27
2018-07-09T18:21:55.732Z,2.40
2018-07-09T18:24:23.069Z,2.30
2018-07-09T18:26:50.721Z,2.70
2018-07-09T18:29:18.018Z,2.37
2018-07-09T18:31:45.321Z,2.57
2018-07-09T18:34:12.601Z,3.33
2018-07-09T18:36:40.265Z,3.10
2018-07-09T18:39:07.532Z,2.70
2018-07-09T18:41:34.855Z,3.60
2018-07-09T18:44:02.185Z,2.67
2018-07-09T18:46:29.461Z,2.40
2018-07-09T18:48:56.773Z,4.23
2018-07-09T18:51:24.209Z,2.50
2018-07-09T18:53:51.532Z,2.50
2018-07-09T18:56:18.833Z,3.00
2018-07-09T18:58:46.321Z,3.03
2018-07-09T19:01:13.764Z,2.97
2018-07-09T19:03:41.101Z,2.63
2018-07-09T19:07:14.935Z,1.97
2018-07-09T19:09:42.282Z,3.37
2018-07-09T19:12:09.653Z,2.90
2018-07-09T19:14:38.429Z,2.00
2018-07-09T19:17:11.373Z,2.60
2018-07-09T19:19:44.397Z,2.70
2018-07-09T19:22:11.693Z,2.47
2018-07-09T19:24:38.561Z,2.90
2018-07-09T19:27:05.393Z,4.20
2018-07-09T19:29:32.257Z,2.60
2018-07-09T19:31:59.109Z,2.37
2018-07-09T19:34:25.950Z,2.37
2018-07-09T19:36:52.901Z,2.83
2018-07-09T19:39:19.657Z,2.40
2018-07-09T19:41:46.597Z,4.43
2018-07-09T19:44:13.358Z,4.20
2018-07-09T19:46:40.233Z,2.77
2018-07-09T19:49:07.077Z,3.57
2018-07-09T19:51:33.910Z,3.70
2018-07-09T19:54:00.749Z,4.73
2018-07-09T19:56:27.621Z,3.00
2018-07-09T19:58:54.697Z,3.10
2018-07-09T20:01:21.529Z,3.60
2018-07-09T20:03:48.371Z,2.50
2018-07-09T20:06:15.215Z,3.90
2018-07-09T20:08:47.848Z,2.93
2018-07-09T20:11:20.373Z,3.13
2018-07-09T20:14:01.828Z,3.43
2018-07-09T20:16:34.411Z,3.17
2018-07-09T20:19:01.623Z,3.60
2018-07-09T20:21:29.179Z,3.03
2018-07-09T20:23:56.118Z,3.53
2018-07-09T20:26:22.959Z,4.20
2018-07-09T20:28:49.917Z,2.67
2018-07-09T20:31:16.985Z,2.57
2018-07-09T20:33:43.817Z,2.43
2018-07-09T20:36:10.682Z,2.37
2018-07-09T20:38:37.543Z,3.10
2018-07-09T20:41:04.382Z,3.50
2018-07-09T20:43:31.272Z,2.87
2018-07-09T20:45:58.104Z,3.63
2018-07-09T20:48:24.989Z,3.80
2018-07-09T20:50:51.850Z,3.30
2018-07-09T20:53:18.706Z,3.20
2018-07-09T20:55:45.565Z,2.40
2018-07-09T20:58:12.405Z,3.10
2018-07-09T21:00:39.533Z,4.20
2018-07-09T21:03:06.514Z,3.10
2018-07-09T21:05:33.686Z,2.80
2018-07-09T21:08:00.534Z,2.50
2018-07-09T21:10:27.364Z,2.90
2018-07-09T21:12:55.020Z,2.30
2018-07-09T21:15:22.475Z,2.80
2018-07-09T21:17:49.053Z,3.00
2018-07-09T21:20:16.326Z,3.03
2018-07-09T21:22:43.244Z,2.33
2018-07-09T21:25:10.086Z,2.40
2018-07-09T21:27:36.941Z,4.70
2018-07-09T21:30:03.781Z,3.77
2018-07-09T21:32:30.622Z,4.00
2018-07-09T21:34:57.484Z,2.50
2018-07-09T21:37:24.471Z,2.80
2018-07-09T21:39:51.252Z,2.67
2018-07-09T21:42:18.142Z,3.00
2018-07-09T21:44:44.972Z,3.13
2018-07-09T21:47:11.952Z,2.70
2018-07-09T21:49:38.786Z,2.90
2018-07-09T21:52:05.850Z,2.80
2018-07-09T21:54:32.689Z,3.17
2018-07-09T21:56:59.556Z,3.20
2018-07-09T21:59:26.389Z,2.37
2018-07-09T22:01:53.473Z,2.43
2018-07-09T22:04:20.305Z,2.70
2018-07-09T22:06:47.177Z,2.70
2018-07-09T22:09:14.009Z,3.70
2018-07-09T22:11:40.901Z,2.80
2018-07-09T22:14:07.933Z,2.37
2018-07-09T22:16:34.789Z,2.90
2018-07-09T22:19:01.637Z,3.60
2018-07-09T22:21:28.657Z,2.67
2018-07-09T22:23:55.501Z,2.40
2018-07-09T22:26:22.372Z,2.70
2018-07-09T22:28:49.206Z,3.20
2018-07-09T22:31:16.533Z,3.70
2018-07-09T22:33:43.814Z,3.43
2018-07-09T22:36:11.128Z,4.63
2018-07-09T22:38:38.402Z,3.20
2018-07-09T22:41:05.720Z,3.37
2018-07-09T22:43:38.679Z,3.20
2018-07-09T22:46:05.945Z,2.80
2018-07-09T22:48:33.228Z,3.40
2018-07-09T22:51:00.599Z,2.40
2018-07-09T22:53:27.837Z,2.33
2018-07-09T22:56:00.817Z,2.57
2018-07-09T22:58:28.259Z,3.23
2018-07-09T23:00:55.529Z,2.57
2018-07-09T23:03:23.082Z,2.30
2018-07-09T23:05:50.398Z,2.30
2018-07-09T23:08:17.664Z,2.47
2018-07-09T23:11:50.568Z,2.83
2018-07-09T23:14:23.667Z,2.90
2018-07-09T23:16:56.588Z,2.40
2018-07-09T23:19:30.447Z,2.67
2018-07-09T23:22:03.577Z,2.50
2018-07-09T23:24:30.409Z,2.73
2018-07-09T23:26:57.304Z,2.90
2018-07-09T23:29:24.162Z,3.83
2018-07-09T23:31:51.003Z,2.73
2018-07-09T23:34:18.273Z,2.50
2018-07-09T23:36:45.173Z,3.10
2018-07-09T23:39:12.283Z,2.50
2018-07-09T23:41:39.125Z,2.70
2018-07-09T23:44:06.092Z,2.97
2018-07-09T23:46:32.919Z,2.90
2018-07-09T23:48:59.748Z,3.10
2018-07-09T23:51:26.580Z,3.00
2018-07-09T23:53:53.624Z,2.50
2018-07-09T23:56:27.020Z,2.70
2018-07-09T23:59:26.605Z,2.70
